Coral Princess — ZCDF4 — position and weather

sailwx.info

Track history (hours):
 
Tides and Currents Weather Stations Pressure Air Temp Water Temp Dewpoint Dewpoint Depression Visibility Wind Speed Wind Dir Waves Ship Positions

Coral Princess

Operator: Princess Cruises

Last reported at 2018-Apr-25 17:14 UTC. Time now 2018-Apr-26 19:14 UTC.
Position N 09°11' W 079°53'.

Type: Passenger vessel. MMSI: 310376000.

Date/timePositionNaut miles runAvg speedWind from/ knotsBaromVisibWave heightAir tempDewpointWater temp
2018-Apr-25 17:14N 09°11' W 079°53'2 8.7
2018-Apr-25 17:00N 09°12' W 079°55'2 3.2
2018-Apr-25 16:30N 09°14' W 079°55'1 1.4
2018-Apr-25 15:59N 09°15' W 079°55'1 1.3
2018-Apr-25 15:30N 09°15' W 079°55'1 1.9
2018-Apr-25 15:00N 09°16' W 079°55'0 0.6
2018-Apr-25 14:30N 09°16' W 079°55'0 0.4
2018-Apr-25 14:01N 09°17' W 079°55'0 0.5
2018-Apr-25 13:30N 09°17' W 079°55'1 2.5
2018-Apr-25 13:00N 09°18' W 079°55'3 6.2
2018-Apr-25 12:30N 09°21' W 079°55'3 6.2
2018-Apr-25 12:00N 09°24' W 079°55'510.6
2018-Apr-25 11:30N 09°29' W 079°54'713.2
2018-Apr-25 11:00N 09°36' W 079°52'28410.8
2018-Apr-24 08:48N 10°59' W 075°16'918.8
2018-Apr-24 08:20N 11°03' W 075°08'618.8
2018-Apr-24 08:00N 11°06' W 075°02'918.3
2018-Apr-24 07:30N 11°11' W 074°54'9120.1
2018-Apr-24 03:00N 11°48' W 073°30'189 7.9 070 / 251012.710.8 26.024.626.0
2018-Apr-23 03:00N 13°54' W 071°06'19317.6 070 / 401011.810.8 27.024.127.0
2018-Apr-22 16:00N 16°24' W 073°12'19114.7 090 / 351013.510.8 27.024.127.0
2018-Apr-22 03:00N 19°24' W 074°18'34816.6 060 / 251016.010.8 27.024.126.0
2018-Apr-21 06:00N 23°12' W 079°00'6220.7 070 / 111016.110.8 25.521.826.0
2018-Apr-21 03:00N 24°12' W 079°18'7222.0 070 / 181019.910.8 25.521.826.0
2018-Apr-20 23:44N 25°22' W 079°38'418.6
2018-Apr-20 23:30N 25°26' W 079°39'918.4
2018-Apr-20 23:00N 25°35' W 079°41'917.7
2018-Apr-20 22:30N 25°42' W 079°46'714.5
2018-Apr-20 22:00N 25°48' W 079°51'713.1
2018-Apr-20 21:29N 25°54' W 079°55'612.6
2018-Apr-20 21:00N 25°58' W 079°59'612.7
2018-Apr-20 20:30N 26°04' W 080°03'4 8.0
2018-Apr-20 20:00N 26°06' W 080°07'0 0.2
2018-Apr-20 19:28N 26°06' W 080°07'0 0.0
2018-Apr-20 18:55N 26°06' W 080°07'0 0.0
2018-Apr-20 18:28N 26°06' W 080°07'0 0.0
2018-Apr-20 17:58N 26°06' W 080°07'0 0.0
2018-Apr-20 17:25N 26°06' W 080°07'0 0.0
2018-Apr-20 16:58N 26°06' W 080°07'0 0.0
2018-Apr-20 16:25N 26°06' W 080°07'0 0.0
2018-Apr-20 15:58N 26°06' W 080°07'0 0.0
2018-Apr-20 15:28N 26°06' W 080°07'0 0.0
2018-Apr-20 14:58N 26°06' W 080°07'0 0.0
2018-Apr-20 14:28N 26°06' W 080°07'0 0.0
2018-Apr-20 13:55N 26°06' W 080°07'0 0.0
2018-Apr-20 13:28N 26°06' W 080°07'0 0.0
2018-Apr-20 12:58N 26°06' W 080°07'0 0.0
2018-Apr-20 12:28N 26°06' W 080°07'0 0.0
2018-Apr-20 11:58N 26°06' W 080°07'0 0.0
2018-Apr-20 11:28N 26°06' W 080°07'0 0.0
2018-Apr-20 10:58N 26°06' W 080°07'0 0.0
2018-Apr-20 10:28N 26°06' W 080°07'0 0.1
2018-Apr-20 09:59N 26°06' W 080°07'1 1.2
2018-Apr-20 09:30N 26°06' W 080°07'5 9.7
2018-Apr-20 09:00N 26°05' W 080°01'611.0
2018-Apr-20 08:30N 26°02' W 079°57'714.1
2018-Apr-20 08:00N 25°55' W 079°53'816.1
2018-Apr-20 07:31N 25°48' W 079°51'917.4
2018-Apr-20 07:00N 25°39' W 079°49'816.5
2018-Apr-20 06:30N 25°31' W 079°47'1020.8
2018-Apr-20 06:00N 25°21' W 079°44'4221.1
2018-Apr-20 06:00N 25°18' W 079°42'6220.7 180 / 51021.610.8 25.020.426.0
2018-Apr-20 03:00N 24°18' W 079°24'4821.1 050 / 151019.510.8 25.020.426.0
2018-Apr-20 00:43N 23°32' W 079°09'16221.0
2018-Apr-19 17:00N 21°48' W 076°54'18214.0 070 / 121017.210.8 27.322.526.0
2018-Apr-19 04:00N 19°30' W 074°48'6917.3 080 / 251016.310.8 27.022.627.0
2018-Apr-19 00:00N 19°00' W 075°54'129 8.0 120 / 151015.310.8 27.022.626.0
2018-Apr-18 08:00N 18°30' W 078°06'7518.8 120 / 151014.310.8 25.023.526.0
2018-Apr-18 04:00N 17°30' W 078°54'14418.0 130 / 51015.310.8 25.023.526.0
2018-Apr-17 20:00N 15°18' W 079°54'27517.2 060 / 231013.010.8 27.022.627.0
2018-Apr-17 04:00N 11°18' W 082°12'169 6.4 030 / 181014.110.8 27.024.127.0
2018-Apr-16 01:43N 09°33' W 079°57'416.1
2018-Apr-16 01:30N 09°31' W 079°55'714.1
2018-Apr-16 01:01N 09°24' W 079°54'2 4.3
2018-Apr-16 00:28N 09°22' W 079°54'0 0.0
2018-Apr-15 23:58N 09°22' W 079°54'0 0.0
2018-Apr-15 23:28N 09°22' W 079°54'0 0.0
2018-Apr-15 22:58N 09°22' W 079°54'0 0.0
2018-Apr-15 22:28N 09°22' W 079°54'0 0.0
2018-Apr-15 21:58N 09°22' W 079°54'0 0.0
2018-Apr-15 21:28N 09°22' W 079°54'0 0.0
2018-Apr-15 20:58N 09°22' W 079°54'0 0.0
2018-Apr-15 20:28N 09°22' W 079°54'0 0.3
2018-Apr-15 20:00N 09°22' W 079°54'2 4.0
2018-Apr-15 19:30N 09°24' W 079°54'4 7.4
2018-Apr-15 19:00N 09°20' W 079°55'3 6.5
2018-Apr-15 18:30N 09°17' W 079°55'0 1.0
2018-Apr-15 18:00N 09°17' W 079°55'0 0.6
2018-Apr-15 17:30N 09°16' W 079°55'  
Track history (hours):
 
Tides and Currents Weather Stations Pressure Air Temp Water Temp Dewpoint Dewpoint Depression Visibility Wind Speed Wind Dir Waves Ship Positions

Coral Princess

Operator: Princess Cruises

Last reported at 2018-Apr-25 17:14 UTC. Time now 2018-Apr-26 19:14 UTC.
Position N 09°11' W 079°53'.

Type: Passenger vessel. MMSI: 310376000.

Date/timePositionNaut miles runAvg speedWind from/ knotsBaromVisibWave heightAir tempDewpointWater temp
2018-Apr-25 17:14N 09°11' W 079°53'2 8.7
2018-Apr-25 17:00N 09°12' W 079°55'2 3.2
2018-Apr-25 16:30N 09°14' W 079°55'1 1.4
2018-Apr-25 15:59N 09°15' W 079°55'1 1.3
2018-Apr-25 15:30N 09°15' W 079°55'1 1.9
2018-Apr-25 15:00N 09°16' W 079°55'0 0.6
2018-Apr-25 14:30N 09°16' W 079°55'0 0.4
2018-Apr-25 14:01N 09°17' W 079°55'0 0.5
2018-Apr-25 13:30N 09°17' W 079°55'1 2.5
2018-Apr-25 13:00N 09°18' W 079°55'3 6.2
2018-Apr-25 12:30N 09°21' W 079°55'3 6.2
2018-Apr-25 12:00N 09°24' W 079°55'510.6
2018-Apr-25 11:30N 09°29' W 079°54'713.2
2018-Apr-25 11:00N 09°36' W 079°52'28410.8
2018-Apr-24 08:48N 10°59' W 075°16'918.8
2018-Apr-24 08:20N 11°03' W 075°08'618.8
2018-Apr-24 08:00N 11°06' W 075°02'918.3
2018-Apr-24 07:30N 11°11' W 074°54'9120.1
2018-Apr-24 03:00N 11°48' W 073°30'189 7.9 070 / 251012.710.8 26.024.626.0
2018-Apr-23 03:00N 13°54' W 071°06'19317.6 070 / 401011.810.8 27.024.127.0
2018-Apr-22 16:00N 16°24' W 073°12'19114.7 090 / 351013.510.8 27.024.127.0
2018-Apr-22 03:00N 19°24' W 074°18'34816.6 060 / 251016.010.8 27.024.126.0
2018-Apr-21 06:00N 23°12' W 079°00'6220.7 070 / 111016.110.8 25.521.826.0
2018-Apr-21 03:00N 24°12' W 079°18'7222.0 070 / 181019.910.8 25.521.826.0
2018-Apr-20 23:44N 25°22' W 079°38'418.6
2018-Apr-20 23:30N 25°26' W 079°39'918.4
2018-Apr-20 23:00N 25°35' W 079°41'917.7
2018-Apr-20 22:30N 25°42' W 079°46'714.5
2018-Apr-20 22:00N 25°48' W 079°51'713.1
2018-Apr-20 21:29N 25°54' W 079°55'612.6
2018-Apr-20 21:00N 25°58' W 079°59'612.7
2018-Apr-20 20:30N 26°04' W 080°03'4 8.0
2018-Apr-20 20:00N 26°06' W 080°07'0 0.2
2018-Apr-20 19:28N 26°06' W 080°07'0 0.0
2018-Apr-20 18:55N 26°06' W 080°07'0 0.0
2018-Apr-20 18:28N 26°06' W 080°07'0 0.0
2018-Apr-20 17:58N 26°06' W 080°07'0 0.0
2018-Apr-20 17:25N 26°06' W 080°07'0 0.0
2018-Apr-20 16:58N 26°06' W 080°07'0 0.0
2018-Apr-20 16:25N 26°06' W 080°07'0 0.0
2018-Apr-20 15:58N 26°06' W 080°07'0 0.0
2018-Apr-20 15:28N 26°06' W 080°07'0 0.0
2018-Apr-20 14:58N 26°06' W 080°07'0 0.0
2018-Apr-20 14:28N 26°06' W 080°07'0 0.0
2018-Apr-20 13:55N 26°06' W 080°07'0 0.0
2018-Apr-20 13:28N 26°06' W 080°07'0 0.0
2018-Apr-20 12:58N 26°06' W 080°07'0 0.0
2018-Apr-20 12:28N 26°06' W 080°07'0 0.0
2018-Apr-20 11:58N 26°06' W 080°07'0 0.0
2018-Apr-20 11:28N 26°06' W 080°07'0 0.0
2018-Apr-20 10:58N 26°06' W 080°07'0 0.0
2018-Apr-20 10:28N 26°06' W 080°07'0 0.1
2018-Apr-20 09:59N 26°06' W 080°07'1 1.2
2018-Apr-20 09:30N 26°06' W 080°07'5 9.7
2018-Apr-20 09:00N 26°05' W 080°01'611.0
2018-Apr-20 08:30N 26°02' W 079°57'714.1
2018-Apr-20 08:00N 25°55' W 079°53'816.1
2018-Apr-20 07:31N 25°48' W 079°51'917.4
2018-Apr-20 07:00N 25°39' W 079°49'816.5
2018-Apr-20 06:30N 25°31' W 079°47'1020.8
2018-Apr-20 06:00N 25°21' W 079°44'4221.1
2018-Apr-20 06:00N 25°18' W 079°42'6220.7 180 / 51021.610.8 25.020.426.0
2018-Apr-20 03:00N 24°18' W 079°24'4821.1 050 / 151019.510.8 25.020.426.0
2018-Apr-20 00:43N 23°32' W 079°09'16221.0
2018-Apr-19 17:00N 21°48' W 076°54'18214.0 070 / 121017.210.8 27.322.526.0
2018-Apr-19 04:00N 19°30' W 074°48'6917.3 080 / 251016.310.8 27.022.627.0
2018-Apr-19 00:00N 19°00' W 075°54'129 8.0 120 / 151015.310.8 27.022.626.0
2018-Apr-18 08:00N 18°30' W 078°06'7518.8 120 / 151014.310.8 25.023.526.0
2018-Apr-18 04:00N 17°30' W 078°54'14418.0 130 / 51015.310.8 25.023.526.0
2018-Apr-17 20:00N 15°18' W 079°54'27517.2 060 / 231013.010.8 27.022.627.0
2018-Apr-17 04:00N 11°18' W 082°12'169 6.4 030 / 181014.110.8 27.024.127.0
2018-Apr-16 01:43N 09°33' W 079°57'416.1
2018-Apr-16 01:30N 09°31' W 079°55'714.1
2018-Apr-16 01:01N 09°24' W 079°54'2 4.3
2018-Apr-16 00:28N 09°22' W 079°54'0 0.0
2018-Apr-15 23:58N 09°22' W 079°54'0 0.0
2018-Apr-15 23:28N 09°22' W 079°54'0 0.0
2018-Apr-15 22:58N 09°22' W 079°54'0 0.0
2018-Apr-15 22:28N 09°22' W 079°54'0 0.0
2018-Apr-15 21:58N 09°22' W 079°54'0 0.0
2018-Apr-15 21:28N 09°22' W 079°54'0 0.0
2018-Apr-15 20:58N 09°22' W 079°54'0 0.0
2018-Apr-15 20:28N 09°22' W 079°54'0 0.3
2018-Apr-15 20:00N 09°22' W 079°54'2 4.0
2018-Apr-15 19:30N 09°24' W 079°54'4 7.4
2018-Apr-15 19:00N 09°20' W 079°55'3 6.5
2018-Apr-15 18:30N 09°17' W 079°55'0 1.0
2018-Apr-15 18:00N 09°17' W 079°55'0 0.6
2018-Apr-15 17:30N 09°16' W 079°55'  

Dump ship's entire track history